Hundvaag 1 weather for Feb 2002
Month no. 176
Obs.
Da.
Temp. Dew Point Precip. Wind
Speed
Wind gusts Cloud cover Press. Humidity Wind dir. Sunny OPT
01.02.2002 7,1   4,3     0 1001,9     1  
02.02.2002 9,4   7,5     0 1002,6        
03.02.2002 7,2   0,0     0 1008,2        
04.02.2002 6,0   3,1     0 1001,1     1  
05.02.2002 7,3   10,5     0 993,9        
06.02.2002 4,8   1,4     0 997,4        
07.02.2002 3,5   9,5     0 1007,7        
08.02.2002 6,7   8,1     0 1002,4     1  
09.02.2002 7,5   8,6     0 990,0     1  
10.02.2002 5,0   14,6     2 997,1        
11.02.2002 2,7   3,6     0 995,8        
12.02.2002 3,6   6,2     0 994,5     1  
13.02.2002 2,9   0,1     1 1012,1     1  
14.02.2002 -2,6   0,0     10 1024,9     1  
15.02.2002 4,7   3,9     10 1020,9     1  
16.02.2002 6,1   0,0     0 1021,1        
17.02.2002 6,5   0,0     0 1013,6        
18.02.2002 3,5   5,0     0 1008,4        
19.02.2002 -0,6   2,5     0 1005,4        
20.02.2002 -1,1   3,4     0 999,7        
21.02.2002 -6,2   0,0     10 1012,7     1  
22.02.2002 4,9   24,9     0 987,1        
23.02.2002 2,3   6,7     3 988,6     1  
24.02.2002 -1,1   3,4     2 1002,0        
25.02.2002 1,2   6,4     2 1003,6        
26.02.2002 2,7   0,0     2 996,9        
27.02.2002 2,3   3,4     0 987,2     1  
28.02.2002 2,5   3,7     1 992,1     1  
                       
                       
                       
Avrg/Sum 3,5   140,8     1,5 1002,5     12